createdAt,value
2023-10-09T00:02:13.576Z,100982.59
2023-10-09T00:04:43.609Z,100969.59
2023-10-09T00:07:11.693Z,100990.97
2023-10-09T00:09:48.862Z,100979.59
2023-10-09T00:12:24.361Z,100980.47
2023-10-09T00:14:51.973Z,100988.41
2023-10-09T00:17:22.593Z,100994.91
2023-10-09T00:19:51.095Z,100987.34
2023-10-09T00:22:27.663Z,100980.91
2023-10-09T00:25:13.447Z,100984.88
2023-10-09T00:27:47.425Z,100991.91
2023-10-09T00:30:19.668Z,100990.97
2023-10-09T00:33:07.489Z,100987.22
2023-10-09T00:35:38.970Z,100993.13
2023-10-09T00:38:21.233Z,100999.09
2023-10-09T00:40:57.343Z,101006.81
2023-10-09T00:43:30.984Z,100997.34
2023-10-09T00:46:13.317Z,100994.72
2023-10-09T00:48:43.022Z,100989.66
2023-10-09T00:51:20.099Z,100990.56
2023-10-09T00:53:52.429Z,100978.50
2023-10-09T00:56:29.719Z,100976.78
2023-10-09T00:59:07.871Z,100976.94
2023-10-09T01:01:49.776Z,100974.59
2023-10-09T01:04:18.791Z,100961.81
2023-10-09T01:07:09.226Z,100965.56
2023-10-09T01:09:39.654Z,100977.09
2023-10-09T01:12:06.738Z,100976.44
2023-10-09T01:14:42.375Z,100981.09
2023-10-09T01:17:10.386Z,100990.00
2023-10-09T01:19:37.882Z,100997.88
2023-10-09T01:22:17.497Z,100989.41
2023-10-09T01:24:44.981Z,100999.25
2023-10-09T01:27:18.138Z,100982.16
2023-10-09T01:29:47.349Z,101003.50
2023-10-09T01:32:21.114Z,100995.63
2023-10-09T01:34:51.600Z,100992.16
2023-10-09T01:37:24.389Z,100991.91
2023-10-09T01:40:21.233Z,100986.72
2023-10-09T01:42:48.229Z,100955.19
2023-10-09T01:45:21.472Z,100996.84
2023-10-09T01:47:53.180Z,101004.28
2023-10-09T01:50:32.338Z,100995.06
2023-10-09T01:53:02.992Z,101010.44
2023-10-09T01:55:40.935Z,100996.34
2023-10-09T01:58:23.870Z,100999.03
2023-10-09T02:00:57.930Z,100999.63
2023-10-09T02:03:25.833Z,100991.81
2023-10-09T02:06:18.131Z,100982.88
2023-10-09T02:08:50.878Z,100987.00
2023-10-09T02:11:36.902Z,100990.13
2023-10-09T02:14:20.241Z,100985.53
2023-10-09T02:17:03.754Z,100981.25
2023-10-09T02:19:38.916Z,100972.63
2023-10-09T02:22:14.510Z,100980.13
2023-10-09T02:24:52.681Z,100984.41
2023-10-09T02:27:38.922Z,100987.88
2023-10-09T02:30:21.074Z,100987.88
2023-10-09T02:32:53.914Z,100992.09
2023-10-09T02:35:29.760Z,100985.91
2023-10-09T02:37:59.146Z,100982.09
2023-10-09T02:40:33.857Z,100975.44
2023-10-09T02:43:00.858Z,100981.31
2023-10-09T02:45:33.963Z,100970.97
2023-10-09T02:48:01.553Z,100989.56
2023-10-09T02:50:29.960Z,100989.84
2023-10-09T02:53:02.150Z,100989.78
2023-10-09T02:55:29.146Z,100980.97
2023-10-09T02:58:12.167Z,100969.78
2023-10-09T03:00:38.811Z,100970.78
2023-10-09T03:03:09.081Z,100986.28
2023-10-09T03:05:39.545Z,100979.47
2023-10-09T03:08:06.378Z,100984.72
2023-10-09T03:10:35.295Z,100990.19
2023-10-09T03:13:04.339Z,100986.84
2023-10-09T03:15:36.937Z,100986.84
2023-10-09T03:18:06.049Z,100991.22
2023-10-09T03:20:33.014Z,100985.31
2023-10-09T03:23:02.513Z,100986.66
2023-10-09T03:25:29.374Z,100999.91
2023-10-09T03:27:59.965Z,101001.69
2023-10-09T03:30:26.702Z,100969.34
2023-10-09T03:32:55.314Z,101010.66
2023-10-09T03:35:26.985Z,101013.03
2023-10-09T03:37:58.530Z,101005.22
2023-10-09T03:40:26.108Z,101010.41
2023-10-09T03:42:53.904Z,101009.25
2023-10-09T03:45:27.324Z,101009.34
2023-10-09T03:48:12.550Z,101019.81
2023-10-09T03:50:39.499Z,101018.03
2023-10-09T03:53:12.532Z,100998.25
2023-10-09T03:55:40.787Z,101007.78
2023-10-09T03:58:08.583Z,101014.22
2023-10-09T04:00:46.403Z,101019.75
2023-10-09T04:03:15.635Z,101025.50
2023-10-09T04:05:44.420Z,101031.66
2023-10-09T04:08:21.284Z,101036.63
2023-10-09T04:10:57.098Z,101035.31
2023-10-09T04:13:33.723Z,101033.22
2023-10-09T04:16:12.529Z,101033.94
2023-10-09T04:18:40.964Z,101028.53
2023-10-09T04:21:20.841Z,101028.63
2023-10-09T04:24:14.515Z,101031.91
2023-10-09T04:26:48.317Z,101041.28
2023-10-09T04:29:28.481Z,101037.34
2023-10-09T04:32:01.736Z,101033.00
2023-10-09T04:34:28.818Z,101042.41
2023-10-09T04:37:02.179Z,101049.38
2023-10-09T04:39:32.233Z,101046.03
2023-10-09T04:42:18.116Z,101055.69
2023-10-09T04:45:03.985Z,101054.50
2023-10-09T04:47:50.589Z,101058.91
2023-10-09T04:50:20.078Z,101059.88
2023-10-09T04:52:53.162Z,101056.47
2023-10-09T04:55:26.083Z,101068.44
2023-10-09T04:58:11.373Z,101063.78
2023-10-09T05:00:58.264Z,101067.00
2023-10-09T05:03:40.609Z,101080.97
2023-10-09T05:06:42.807Z,101084.28
2023-10-09T05:09:10.530Z,101079.34
2023-10-09T05:11:55.262Z,101090.78
2023-10-09T05:14:28.230Z,101101.13
2023-10-09T05:16:56.152Z,101108.75
2023-10-09T05:19:34.761Z,101111.41
2023-10-09T05:22:08.881Z,101103.69
2023-10-09T05:24:48.566Z,101107.41
2023-10-09T05:27:25.733Z,101117.72
2023-10-09T05:30:13.927Z,101124.41
2023-10-09T05:32:49.580Z,101114.91
2023-10-09T05:35:31.085Z,101124.47
2023-10-09T05:38:05.608Z,101127.09
2023-10-09T05:40:32.548Z,101132.31
2023-10-09T05:43:00.611Z,101133.09
2023-10-09T05:45:47.094Z,101128.31
2023-10-09T05:48:13.868Z,101139.19
2023-10-09T05:51:00.875Z,101149.59
2023-10-09T05:53:47.519Z,101146.13
2023-10-09T05:56:46.871Z,101141.19
2023-10-09T05:59:31.918Z,101152.28
2023-10-09T06:01:58.577Z,101148.75
2023-10-09T06:04:44.372Z,101156.44
2023-10-09T06:07:15.224Z,101153.09
2023-10-09T06:09:51.472Z,101160.22
2023-10-09T06:12:33.953Z,101159.44
2023-10-09T06:15:32.956Z,101164.59
2023-10-09T06:18:19.724Z,101170.75
2023-10-09T06:21:04.791Z,101159.59
2023-10-09T06:23:49.780Z,101175.03
2023-10-09T06:26:25.981Z,101165.44
2023-10-09T06:29:13.224Z,101169.72
2023-10-09T06:31:58.865Z,101162.81
2023-10-09T06:34:36.620Z,101165.44
2023-10-09T06:37:29.226Z,101162.84
2023-10-09T06:39:57.485Z,101158.75
2023-10-09T06:42:40.039Z,101149.56
2023-10-09T06:45:15.710Z,101164.94
2023-10-09T06:47:43.109Z,101166.63
2023-10-09T06:50:21.923Z,101166.78
2023-10-09T06:52:58.574Z,101175.38
2023-10-09T06:55:49.551Z,101172.78
2023-10-09T06:58:29.420Z,101183.13
2023-10-09T07:01:00.517Z,101191.16
2023-10-09T07:03:31.303Z,101196.16
2023-10-09T07:06:26.610Z,101191.78
2023-10-09T07:09:06.399Z,101201.47
2023-10-09T07:11:42.834Z,101203.19
2023-10-09T07:14:32.910Z,101198.72
2023-10-09T07:17:16.850Z,101203.78
2023-10-09T07:19:45.159Z,101205.75
2023-10-09T07:22:22.042Z,101209.28
2023-10-09T07:24:59.315Z,101208.38
2023-10-09T07:27:50.994Z,101207.03
2023-10-09T07:30:31.802Z,101206.53
2023-10-09T07:33:12.184Z,101218.88
2023-10-09T07:35:55.375Z,101238.03
2023-10-09T07:38:24.488Z,101229.28
2023-10-09T07:41:07.743Z,101241.22
2023-10-09T07:43:45.320Z,101235.09
2023-10-09T07:46:31.641Z,101244.22
2023-10-09T07:49:10.021Z,101237.44
2023-10-09T07:51:45.398Z,101242.44
2023-10-09T07:54:16.010Z,101244.88
2023-10-09T07:56:47.540Z,101254.34
2023-10-09T07:59:19.394Z,101250.59
2023-10-09T08:01:54.165Z,101241.66
2023-10-09T08:04:41.234Z,101228.81
2023-10-09T08:08:06.485Z,101238.94
2023-10-09T08:10:18.390Z,101237.44
2023-10-09T08:12:48.501Z,101233.69
2023-10-09T08:15:21.450Z,101234.91
2023-10-09T08:17:55.963Z,101239.97
2023-10-09T08:20:27.069Z,101228.75
2023-10-09T08:22:57.184Z,101240.06
2023-10-09T08:25:28.073Z,101234.97
2023-10-09T08:28:33.427Z,101242.19
2023-10-09T08:31:20.076Z,101245.72
2023-10-09T08:36:32.500Z,101234.84
2023-10-09T08:39:00.284Z,101242.66
2023-10-09T08:41:31.420Z,101244.88
2023-10-09T08:43:58.990Z,101235.34
2023-10-09T08:46:30.619Z,101227.38
2023-10-09T08:49:00.230Z,101223.66
2023-10-09T08:51:28.543Z,101232.66
2023-10-09T08:53:56.003Z,101227.75
2023-10-09T08:56:23.966Z,101237.72
2023-10-09T08:58:52.696Z,101232.31
2023-10-09T09:01:23.032Z,101225.50
2023-10-09T09:03:51.642Z,101233.72
2023-10-09T09:06:21.363Z,101239.50
2023-10-09T09:08:48.491Z,101240.03
2023-10-09T09:11:18.091Z,101240.59
2023-10-09T09:13:51.566Z,101239.47
2023-10-09T09:16:31.941Z,101237.53
2023-10-09T09:19:11.803Z,101239.91
2023-10-09T09:22:13.668Z,101227.84
2023-10-09T09:24:46.882Z,101241.59
2023-10-09T09:27:19.886Z,101240.84
2023-10-09T09:29:54.037Z,101219.47
2023-10-09T09:32:37.333Z,101233.63
2023-10-09T09:35:07.364Z,101239.06
2023-10-09T09:37:44.106Z,101233.78
2023-10-09T09:40:35.288Z,101229.50
2023-10-09T09:43:07.103Z,101219.72
2023-10-09T09:45:37.360Z,101208.00
2023-10-09T09:48:07.924Z,101209.25
2023-10-09T09:50:38.255Z,101202.34
2023-10-09T09:53:09.442Z,101196.66
2023-10-09T09:55:43.422Z,101203.66
2023-10-09T09:58:19.977Z,101211.00
2023-10-09T10:00:53.899Z,101214.78
2023-10-09T10:03:30.850Z,101213.19
2023-10-09T10:05:59.273Z,101218.88
2023-10-09T10:08:34.093Z,101211.59
2023-10-09T10:11:06.798Z,101204.59
2023-10-09T10:13:42.703Z,101207.28
2023-10-09T10:16:20.392Z,101209.38
2023-10-09T10:19:16.414Z,101211.06
2023-10-09T10:21:43.510Z,101216.97
2023-10-09T10:24:31.934Z,101224.75
2023-10-09T10:27:27.425Z,101226.28
2023-10-09T10:30:11.061Z,101226.53
2023-10-09T10:32:53.049Z,101227.56
2023-10-09T10:35:46.972Z,101217.16
2023-10-09T10:38:47.166Z,101220.03
2023-10-09T10:41:18.785Z,101212.66
2023-10-09T10:43:55.488Z,101211.88
2023-10-09T10:46:30.329Z,101215.44
2023-10-09T10:49:16.469Z,101204.81
2023-10-09T10:51:50.432Z,101204.72
2023-10-09T10:54:46.828Z,101183.94
2023-10-09T10:57:29.761Z,101187.50
2023-10-09T11:00:13.426Z,101174.59
2023-10-09T11:02:41.721Z,101184.03
2023-10-09T11:05:27.383Z,101176.69
2023-10-09T11:07:58.858Z,101178.81
2023-10-09T11:10:33.052Z,101168.00
2023-10-09T11:13:11.649Z,101170.81
2023-10-09T11:15:46.202Z,101170.97
2023-10-09T11:18:26.167Z,101158.75
2023-10-09T11:20:59.022Z,101161.53
2023-10-09T11:23:37.322Z,101153.00
2023-10-09T11:26:23.894Z,101156.47
2023-10-09T11:29:16.638Z,101155.41
2023-10-09T11:32:07.797Z,101153.88
2023-10-09T11:34:37.570Z,101146.50
2023-10-09T11:37:13.299Z,101151.72
2023-10-09T11:39:54.939Z,101138.91
2023-10-09T11:42:49.798Z,101146.41
2023-10-09T11:45:31.123Z,101145.66
2023-10-09T11:48:01.027Z,101140.97
2023-10-09T11:51:10.473Z,101142.31
2023-10-09T11:53:46.327Z,101122.72
2023-10-09T11:56:18.068Z,101121.88
2023-10-09T11:58:45.168Z,101138.78
2023-10-09T12:01:19.093Z,101140.63
2023-10-09T12:03:50.970Z,101130.41
2023-10-09T12:06:23.959Z,101134.25
2023-10-09T12:08:51.242Z,101125.78
2023-10-09T12:11:26.042Z,101120.94
2023-10-09T12:13:58.079Z,101122.31
2023-10-09T12:16:29.895Z,101135.09
2023-10-09T12:18:57.358Z,101115.47
2023-10-09T12:21:24.891Z,101122.47
2023-10-09T12:23:51.616Z,101115.47
2023-10-09T12:26:18.302Z,101118.56
2023-10-09T12:28:47.694Z,101109.88
2023-10-09T12:31:21.324Z,101104.66
2023-10-09T12:33:48.906Z,101107.47
2023-10-09T12:36:21.189Z,101098.09
2023-10-09T12:38:54.985Z,101094.72
2023-10-09T12:41:34.786Z,101095.75
2023-10-09T12:44:02.574Z,101091.28
2023-10-09T12:46:29.540Z,101087.97
2023-10-09T12:48:56.567Z,101074.63
2023-10-09T12:51:31.309Z,101088.13
2023-10-09T12:53:58.796Z,101078.75
2023-10-09T12:56:33.995Z,101083.38
2023-10-09T12:59:02.262Z,101095.44
2023-10-09T13:01:44.134Z,101093.22
2023-10-09T13:04:18.827Z,101094.25
2023-10-09T13:06:46.980Z,101099.28
2023-10-09T13:09:43.936Z,101087.25
2023-10-09T13:12:19.606Z,101093.84
2023-10-09T13:14:48.595Z,101076.00
2023-10-09T13:17:15.360Z,101093.41
2023-10-09T13:19:42.204Z,101081.28
2023-10-09T13:22:14.434Z,101085.03
2023-10-09T13:24:42.834Z,101090.44
2023-10-09T13:27:11.142Z,101088.81
2023-10-09T13:29:41.423Z,101080.44
2023-10-09T13:32:15.974Z,101077.75
2023-10-09T13:34:46.973Z,101074.78
2023-10-09T13:37:14.712Z,101073.81
2023-10-09T13:39:53.457Z,101083.59
2023-10-09T13:42:20.567Z,101088.78
2023-10-09T13:44:50.094Z,101094.84
2023-10-09T13:47:24.501Z,101086.28
2023-10-09T13:49:52.222Z,101080.81
2023-10-09T13:52:23.304Z,101080.56
2023-10-09T13:54:50.970Z,101081.59
2023-10-09T13:57:17.938Z,101082.50
2023-10-09T13:59:53.722Z,101075.03
2023-10-09T14:02:22.622Z,101057.72
2023-10-09T14:04:49.837Z,101041.44
2023-10-09T14:07:21.825Z,101066.13
2023-10-09T14:10:08.244Z,101060.41
2023-10-09T14:12:35.733Z,101065.22
2023-10-09T14:15:04.961Z,101058.50
2023-10-09T14:17:31.778Z,101057.59
2023-10-09T14:20:17.513Z,101065.44
2023-10-09T14:22:46.595Z,101045.41
2023-10-09T14:25:16.765Z,101049.59
2023-10-09T14:27:43.570Z,101045.53
2023-10-09T14:30:14.153Z,101033.28
2023-10-09T14:32:52.810Z,101040.19
2023-10-09T14:35:22.902Z,101027.84
2023-10-09T14:37:49.818Z,101024.66
2023-10-09T14:40:22.441Z,101019.25
2023-10-09T14:42:56.813Z,101017.94
2023-10-09T14:45:28.185Z,101014.78
2023-10-09T14:47:55.813Z,101026.47
2023-10-09T14:50:23.638Z,101019.66
2023-10-09T14:52:52.033Z,101024.31
2023-10-09T14:55:22.494Z,101033.47
2023-10-09T14:57:53.748Z,101020.66
2023-10-09T15:00:24.600Z,101011.09
2023-10-09T15:02:52.207Z,101010.22
2023-10-09T15:05:19.236Z,101014.09
2023-10-09T15:07:47.654Z,101007.47
2023-10-09T15:10:17.126Z,100999.81
2023-10-09T15:12:49.937Z,101002.75
2023-10-09T15:15:17.118Z,101004.63
2023-10-09T15:17:49.779Z,101004.56
2023-10-09T15:20:18.096Z,101002.94
2023-10-09T15:22:47.290Z,101003.34
2023-10-09T15:25:16.095Z,100994.28
2023-10-09T15:27:43.901Z,100992.09
2023-10-09T15:30:15.203Z,100998.78
2023-10-09T15:32:42.792Z,100990.66
2023-10-09T15:35:14.654Z,100997.03
2023-10-09T15:37:42.844Z,100999.75
2023-10-09T15:40:16.323Z,100998.31
2023-10-09T15:42:44.447Z,100992.50
2023-10-09T15:45:13.380Z,100983.97
2023-10-09T15:47:41.055Z,100971.63
2023-10-09T15:50:13.119Z,100975.50
2023-10-09T15:52:40.592Z,100981.72
2023-10-09T15:55:14.714Z,100955.72
2023-10-09T15:57:42.849Z,100968.06
2023-10-09T16:00:19.215Z,100975.84
2023-10-09T16:02:48.578Z,100977.69
2023-10-09T16:05:17.833Z,100960.94
2023-10-09T16:07:45.078Z,100957.53
2023-10-09T16:10:12.446Z,100967.38
2023-10-09T16:12:42.078Z,100956.72
2023-10-09T16:15:09.939Z,100950.94
2023-10-09T16:17:38.682Z,100950.81
2023-10-09T16:20:14.689Z,100951.16
2023-10-09T16:22:41.882Z,100957.44
2023-10-09T16:25:10.769Z,100961.25
2023-10-09T16:27:37.500Z,100956.97
2023-10-09T16:30:07.006Z,100968.22
2023-10-09T16:32:34.169Z,100955.47
2023-10-09T16:35:00.982Z,100958.06
2023-10-09T16:37:27.675Z,100954.75
2023-10-09T16:39:59.422Z,100947.84
2023-10-09T16:42:26.152Z,100940.19
2023-10-09T16:44:52.828Z,100947.00
2023-10-09T16:47:19.664Z,100947.53
2023-10-09T16:49:52.689Z,100951.56
2023-10-09T16:52:24.860Z,100954.97
2023-10-09T16:54:55.051Z,100952.41
2023-10-09T16:57:22.059Z,100945.53
2023-10-09T16:59:50.327Z,100943.44
2023-10-09T17:02:23.901Z,100930.19
2023-10-09T17:04:53.969Z,100941.44
2023-10-09T17:07:24.927Z,100940.63
2023-10-09T17:09:51.616Z,100934.75
2023-10-09T17:12:18.864Z,100934.59
2023-10-09T17:14:50.334Z,100937.56
2023-10-09T17:17:19.687Z,100935.44
2023-10-09T17:19:49.583Z,100929.34
2023-10-09T17:22:19.015Z,100935.19
2023-10-09T17:24:47.928Z,100920.97
2023-10-09T17:27:19.052Z,100939.31
2023-10-09T17:29:47.709Z,100928.66
2023-10-09T17:32:19.737Z,100921.44
2023-10-09T17:34:46.609Z,100924.75
2023-10-09T17:37:13.467Z,100927.66
2023-10-09T17:39:40.245Z,100927.41
2023-10-09T17:42:09.408Z,100929.47
2023-10-09T17:44:36.277Z,100928.72
2023-10-09T17:47:03.038Z,100923.59
2023-10-09T17:49:31.800Z,100924.00
2023-10-09T17:52:01.236Z,100900.97
2023-10-09T17:54:29.630Z,100912.06
2023-10-09T17:56:58.220Z,100906.94
2023-10-09T17:59:25.372Z,100885.88
2023-10-09T18:01:52.279Z,100903.00
2023-10-09T18:04:19.769Z,100902.78
2023-10-09T18:06:49.216Z,100886.56
2023-10-09T18:09:18.969Z,100898.91
2023-10-09T18:11:47.085Z,100893.09
2023-10-09T18:14:15.291Z,100886.91
2023-10-09T18:16:43.270Z,100883.16
2023-10-09T18:19:13.120Z,100880.94
2023-10-09T18:21:42.583Z,100879.38
2023-10-09T18:24:15.466Z,100879.75
2023-10-09T18:26:42.864Z,100881.63
2023-10-09T18:29:13.488Z,100876.09
2023-10-09T18:31:42.173Z,100862.50
2023-10-09T18:34:09.444Z,100858.22
2023-10-09T18:36:38.369Z,100864.03
2023-10-09T18:39:05.652Z,100843.72
2023-10-09T18:41:32.381Z,100848.31
2023-10-09T18:44:02.029Z,100837.06
2023-10-09T18:46:28.800Z,100843.56
2023-10-09T18:49:01.705Z,100830.97
2023-10-09T18:51:30.719Z,100832.97
2023-10-09T18:54:01.662Z,100845.09
2023-10-09T18:56:29.678Z,100835.13
2023-10-09T18:58:57.853Z,100841.25
2023-10-09T19:01:24.754Z,100840.25
2023-10-09T19:03:51.840Z,100833.78
2023-10-09T19:06:19.657Z,100824.03
2023-10-09T19:08:49.171Z,100817.06
2023-10-09T19:11:17.152Z,100812.88
2023-10-09T19:13:44.711Z,100801.41
2023-10-09T19:16:13.011Z,100816.13
2023-10-09T19:18:40.194Z,100811.00
2023-10-09T19:21:10.446Z,100807.31
2023-10-09T19:23:41.801Z,100799.00
2023-10-09T19:26:10.090Z,100795.13
2023-10-09T19:28:39.148Z,100787.97
2023-10-09T19:31:07.317Z,100802.72
2023-10-09T19:33:38.916Z,100801.09
2023-10-09T19:36:12.788Z,100794.19
2023-10-09T19:38:40.115Z,100783.81
2023-10-09T19:41:07.766Z,100796.06
2023-10-09T19:43:35.390Z,100790.53
2023-10-09T19:46:08.796Z,100789.41
2023-10-09T19:48:36.033Z,100790.78
2023-10-09T19:51:08.034Z,100778.69
2023-10-09T19:53:37.784Z,100789.84
2023-10-09T19:56:06.744Z,100779.47
2023-10-09T19:58:33.547Z,100774.97
2023-10-09T20:01:00.237Z,100772.84
2023-10-09T20:03:29.227Z,100755.75
2023-10-09T20:05:56.076Z,100735.63
2023-10-09T20:08:22.826Z,100738.47
2023-10-09T20:10:50.740Z,100742.56
2023-10-09T20:13:17.575Z,100729.31
2023-10-09T20:15:48.032Z,100731.78
2023-10-09T20:18:14.717Z,100741.97
2023-10-09T20:20:46.962Z,100725.69
2023-10-09T20:23:21.977Z,100728.13
2023-10-09T20:25:59.890Z,100716.81
2023-10-09T20:28:27.186Z,100722.16
2023-10-09T20:30:54.311Z,100714.38
2023-10-09T20:33:23.891Z,100709.66
2023-10-09T20:35:52.502Z,100716.72
2023-10-09T20:38:19.254Z,100720.81
2023-10-09T20:40:46.084Z,100716.72
2023-10-09T20:43:12.934Z,100709.88
2023-10-09T20:45:40.654Z,100708.81
2023-10-09T20:48:07.421Z,100711.38
2023-10-09T20:50:34.195Z,100704.31
2023-10-09T20:53:01.014Z,100712.91
2023-10-09T20:55:27.763Z,100707.72
2023-10-09T20:57:57.934Z,100716.34
2023-10-09T21:00:26.945Z,100713.50
2023-10-09T21:02:55.701Z,100708.22
2023-10-09T21:05:26.736Z,100690.81
2023-10-09T21:07:54.424Z,100685.63
2023-10-09T21:10:22.379Z,100690.22
2023-10-09T21:12:50.634Z,100694.47
2023-10-09T21:15:18.972Z,100703.91
2023-10-09T21:17:46.614Z,100682.91
2023-10-09T21:20:18.060Z,100689.63
2023-10-09T21:22:51.491Z,100681.72
2023-10-09T21:25:21.772Z,100689.47
2023-10-09T21:27:49.349Z,100676.59
2023-10-09T21:30:16.950Z,100665.53
2023-10-09T21:32:44.693Z,100659.34
2023-10-09T21:35:19.899Z,100654.91
2023-10-09T21:37:54.897Z,100661.31
2023-10-09T21:40:29.859Z,100652.72
2023-10-09T21:42:58.319Z,100641.69
2023-10-09T21:45:26.632Z,100644.31
2023-10-09T21:47:57.333Z,100637.72
2023-10-09T21:50:26.462Z,100613.88
2023-10-09T21:52:58.289Z,100621.53
2023-10-09T21:55:26.872Z,100610.72
2023-10-09T21:57:56.427Z,100606.63
2023-10-09T22:00:32.489Z,100605.13
2023-10-09T22:03:08.855Z,100595.66
2023-10-09T22:05:43.223Z,100592.13
2023-10-09T22:08:11.581Z,100599.09
2023-10-09T22:10:39.526Z,100600.19
2023-10-09T22:13:09.390Z,100591.44
2023-10-09T22:15:36.036Z,100601.38
2023-10-09T22:18:10.214Z,100590.75
2023-10-09T22:20:36.990Z,100595.94
2023-10-09T22:23:04.430Z,100578.88
2023-10-09T22:25:32.033Z,100606.03
2023-10-09T22:28:04.843Z,100596.19
2023-10-09T22:30:36.289Z,100607.16
2023-10-09T22:33:04.457Z,100603.84
2023-10-09T22:35:36.019Z,100595.00
2023-10-09T22:38:10.303Z,100601.47
2023-10-09T22:40:40.089Z,100593.25
2023-10-09T22:43:12.045Z,100586.09
2023-10-09T22:45:50.279Z,100590.06
2023-10-09T22:48:18.108Z,100585.47
2023-10-09T22:50:48.789Z,100569.00
2023-10-09T22:53:38.916Z,100571.25
2023-10-09T22:56:14.416Z,100577.19
2023-10-09T22:58:52.292Z,100579.75
2023-10-09T23:01:23.892Z,100572.72
2023-10-09T23:04:11.031Z,100570.13
2023-10-09T23:06:41.952Z,100556.59
2023-10-09T23:09:18.256Z,100562.69
2023-10-09T23:11:55.290Z,100555.47
2023-10-09T23:14:27.264Z,100547.56
2023-10-09T23:16:58.245Z,100543.94
2023-10-09T23:19:45.370Z,100542.31
2023-10-09T23:22:13.812Z,100541.13
2023-10-09T23:24:51.388Z,100534.06
2023-10-09T23:27:38.625Z,100534.91
2023-10-09T23:30:25.472Z,100524.44
2023-10-09T23:32:53.647Z,100513.06
2023-10-09T23:35:22.133Z,100507.97
2023-10-09T23:38:09.047Z,100507.81
2023-10-09T23:40:42.968Z,100485.22
2023-10-09T23:43:14.338Z,100497.63
2023-10-09T23:45:41.950Z,100494.13
2023-10-09T23:48:27.674Z,100495.84
2023-10-09T23:50:57.164Z,100499.16
2023-10-09T23:53:27.808Z,100490.56
2023-10-09T23:55:54.933Z,100459.31
2023-10-09T23:58:22.891Z,100451.47
